sensor_id;sensor_type;location;lat;lon;timestamp;P1;durP1;ratioP1;P2;durP2;ratioP2
26486;SDS011;14425;56.136;40.360;2023-04-03T00:00:03;8.23;;;6.18;;
26486;SDS011;14425;56.136;40.360;2023-04-03T00:02:30;10.15;;;7.03;;
26486;SDS011;14425;56.136;40.360;2023-04-03T00:04:55;8.73;;;6.45;;
26486;SDS011;14425;56.136;40.360;2023-04-03T00:07:21;11.60;;;7.28;;
26486;SDS011;14425;56.136;40.360;2023-04-03T00:09:46;8.70;;;5.57;;
26486;SDS011;14425;56.136;40.360;2023-04-03T00:12:12;9.38;;;6.43;;
26486;SDS011;14425;56.136;40.360;2023-04-03T00:14:37;9.85;;;6.88;;
26486;SDS011;14425;56.136;40.360;2023-04-03T00:17:03;8.95;;;7.00;;
26486;SDS011;14425;56.136;40.360;2023-04-03T00:19:28;13.23;;;7.03;;
26486;SDS011;14425;56.136;40.360;2023-04-03T00:21:54;10.23;;;6.95;;
26486;SDS011;14425;56.136;40.360;2023-04-03T00:24:19;11.27;;;7.28;;
26486;SDS011;14425;56.136;40.360;2023-04-03T00:26:45;7.88;;;6.20;;
26486;SDS011;14425;56.136;40.360;2023-04-03T00:29:10;10.52;;;7.10;;
26486;SDS011;14425;56.136;40.360;2023-04-03T00:31:36;7.43;;;6.47;;
26486;SDS011;14425;56.136;40.360;2023-04-03T00:34:01;8.80;;;6.82;;
26486;SDS011;14425;56.136;40.360;2023-04-03T00:36:27;8.55;;;6.22;;
26486;SDS011;14425;56.136;40.360;2023-04-03T00:38:53;7.90;;;6.43;;
26486;SDS011;14425;56.136;40.360;2023-04-03T00:41:19;11.25;;;6.22;;
26486;SDS011;14425;56.136;40.360;2023-04-03T00:43:45;8.50;;;6.57;;
26486;SDS011;14425;56.136;40.360;2023-04-03T00:46:10;12.35;;;6.45;;
26486;SDS011;14425;56.136;40.360;2023-04-03T00:48:45;10.38;;;6.70;;
26486;SDS011;14425;56.136;40.360;2023-04-03T00:51:13;9.38;;;6.28;;
26486;SDS011;14425;56.136;40.360;2023-04-03T00:53:44;7.85;;;5.85;;
26486;SDS011;14425;56.136;40.360;2023-04-03T00:56:13;7.60;;;5.47;;
26486;SDS011;14425;56.136;40.360;2023-04-03T00:58:44;9.73;;;5.88;;
26486;SDS011;14425;56.136;40.360;2023-04-03T01:01:17;9.55;;;6.43;;
26486;SDS011;14425;56.136;40.360;2023-04-03T01:03:46;7.90;;;5.88;;
26486;SDS011;14425;56.136;40.360;2023-04-03T01:06:12;7.85;;;6.15;;
26486;SDS011;14425;56.136;40.360;2023-04-03T01:08:41;9.93;;;6.10;;
26486;SDS011;14425;56.136;40.360;2023-04-03T01:11:07;10.77;;;6.60;;
26486;SDS011;14425;56.136;40.360;2023-04-03T01:13:32;7.80;;;6.03;;
26486;SDS011;14425;56.136;40.360;2023-04-03T01:16:03;8.45;;;6.55;;
26486;SDS011;14425;56.136;40.360;2023-04-03T01:18:29;6.28;;;5.45;;
26486;SDS011;14425;56.136;40.360;2023-04-03T01:21:17;6.95;;;5.82;;
26486;SDS011;14425;56.136;40.360;2023-04-03T01:26:57;7.90;;;6.20;;
26486;SDS011;14425;56.136;40.360;2023-04-03T01:29:23;7.38;;;5.90;;
26486;SDS011;14425;56.136;40.360;2023-04-03T01:31:53;8.20;;;6.18;;
26486;SDS011;14425;56.136;40.360;2023-04-03T01:34:21;7.43;;;5.55;;
26486;SDS011;14425;56.136;40.360;2023-04-03T01:36:47;7.53;;;5.47;;
26486;SDS011;14425;56.136;40.360;2023-04-03T01:39:13;7.35;;;5.93;;
26486;SDS011;14425;56.136;40.360;2023-04-03T01:41:38;7.70;;;5.47;;
26486;SDS011;14425;56.136;40.360;2023-04-03T01:44:04;6.32;;;4.88;;
26486;SDS011;14425;56.136;40.360;2023-04-03T01:46:30;7.63;;;5.78;;
26486;SDS011;14425;56.136;40.360;2023-04-03T01:48:56;7.80;;;5.85;;
26486;SDS011;14425;56.136;40.360;2023-04-03T01:51:22;9.32;;;6.55;;
26486;SDS011;14425;56.136;40.360;2023-04-03T01:53:47;6.28;;;5.28;;
26486;SDS011;14425;56.136;40.360;2023-04-03T01:56:12;7.53;;;5.32;;
26486;SDS011;14425;56.136;40.360;2023-04-03T01:58:38;7.88;;;5.93;;
26486;SDS011;14425;56.136;40.360;2023-04-03T02:01:04;9.27;;;6.35;;
26486;SDS011;14425;56.136;40.360;2023-04-03T02:03:30;8.65;;;6.00;;
26486;SDS011;14425;56.136;40.360;2023-04-03T02:05:56;7.32;;;5.43;;
26486;SDS011;14425;56.136;40.360;2023-04-03T02:08:21;8.73;;;5.55;;
26486;SDS011;14425;56.136;40.360;2023-04-03T02:10:48;7.75;;;5.32;;
26486;SDS011;14425;56.136;40.360;2023-04-03T02:13:15;8.20;;;6.10;;
26486;SDS011;14425;56.136;40.360;2023-04-03T02:15:41;9.27;;;5.60;;
26486;SDS011;14425;56.136;40.360;2023-04-03T02:18:06;6.32;;;5.00;;
26486;SDS011;14425;56.136;40.360;2023-04-03T02:20:32;8.25;;;5.72;;
26486;SDS011;14425;56.136;40.360;2023-04-03T02:22:59;9.05;;;6.75;;
26486;SDS011;14425;56.136;40.360;2023-04-03T02:25:25;11.15;;;7.00;;
26486;SDS011;14425;56.136;40.360;2023-04-03T02:27:51;10.10;;;7.05;;
26486;SDS011;14425;56.136;40.360;2023-04-03T02:30:16;9.98;;;7.20;;
26486;SDS011;14425;56.136;40.360;2023-04-03T02:32:42;10.95;;;7.20;;
26486;SDS011;14425;56.136;40.360;2023-04-03T02:35:09;10.38;;;7.50;;
26486;SDS011;14425;56.136;40.360;2023-04-03T02:37:35;10.45;;;6.70;;
26486;SDS011;14425;56.136;40.360;2023-04-03T02:40:01;14.30;;;7.63;;
26486;SDS011;14425;56.136;40.360;2023-04-03T02:42:28;11.07;;;7.80;;
26486;SDS011;14425;56.136;40.360;2023-04-03T02:44:53;9.95;;;7.30;;
26486;SDS011;14425;56.136;40.360;2023-04-03T02:47:19;11.05;;;6.63;;
26486;SDS011;14425;56.136;40.360;2023-04-03T02:49:44;11.68;;;7.30;;
26486;SDS011;14425;56.136;40.360;2023-04-03T02:52:11;10.77;;;7.60;;
26486;SDS011;14425;56.136;40.360;2023-04-03T02:54:37;9.00;;;6.72;;
26486;SDS011;14425;56.136;40.360;2023-04-03T02:57:03;9.95;;;6.78;;
26486;SDS011;14425;56.136;40.360;2023-04-03T02:59:28;11.10;;;7.00;;
26486;SDS011;14425;56.136;40.360;2023-04-03T03:01:54;10.10;;;7.40;;
26486;SDS011;14425;56.136;40.360;2023-04-03T03:04:21;8.30;;;6.68;;
26486;SDS011;14425;56.136;40.360;2023-04-03T03:06:46;10.00;;;6.82;;
26486;SDS011;14425;56.136;40.360;2023-04-03T03:09:12;8.90;;;6.85;;
26486;SDS011;14425;56.136;40.360;2023-04-03T03:11:38;10.07;;;6.95;;
26486;SDS011;14425;56.136;40.360;2023-04-03T03:14:04;9.15;;;6.70;;
26486;SDS011;14425;56.136;40.360;2023-04-03T03:16:29;8.57;;;6.28;;
26486;SDS011;14425;56.136;40.360;2023-04-03T03:18:55;9.45;;;7.00;;
26486;SDS011;14425;56.136;40.360;2023-04-03T03:21:21;13.63;;;7.03;;
26486;SDS011;14425;56.136;40.360;2023-04-03T03:23:46;10.50;;;7.18;;
26486;SDS011;14425;56.136;40.360;2023-04-03T03:26:12;10.43;;;6.72;;
26486;SDS011;14425;56.136;40.360;2023-04-03T03:28:38;11.73;;;7.18;;
26486;SDS011;14425;56.136;40.360;2023-04-03T03:31:05;10.00;;;6.68;;
26486;SDS011;14425;56.136;40.360;2023-04-03T03:33:32;10.52;;;6.32;;
26486;SDS011;14425;56.136;40.360;2023-04-03T03:35:57;8.90;;;6.60;;
26486;SDS011;14425;56.136;40.360;2023-04-03T03:38:23;8.38;;;5.78;;
26486;SDS011;14425;56.136;40.360;2023-04-03T03:40:49;9.43;;;5.82;;
26486;SDS011;14425;56.136;40.360;2023-04-03T03:43:16;11.13;;;6.00;;
26486;SDS011;14425;56.136;40.360;2023-04-03T03:45:42;9.02;;;5.55;;
26486;SDS011;14425;56.136;40.360;2023-04-03T03:48:08;8.68;;;5.47;;
26486;SDS011;14425;56.136;40.360;2023-04-03T03:50:34;9.25;;;6.40;;
26486;SDS011;14425;56.136;40.360;2023-04-03T03:53:00;7.85;;;5.80;;
26486;SDS011;14425;56.136;40.360;2023-04-03T03:55:25;8.40;;;6.00;;
26486;SDS011;14425;56.136;40.360;2023-04-03T03:57:51;7.75;;;6.15;;
26486;SDS011;14425;56.136;40.360;2023-04-03T04:00:17;7.05;;;5.55;;
26486;SDS011;14425;56.136;40.360;2023-04-03T04:02:42;7.13;;;5.50;;
26486;SDS011;14425;56.136;40.360;2023-04-03T04:05:08;5.93;;;4.88;;
26486;SDS011;14425;56.136;40.360;2023-04-03T04:07:34;5.93;;;5.20;;
26486;SDS011;14425;56.136;40.360;2023-04-03T04:10:00;6.57;;;4.70;;
26486;SDS011;14425;56.136;40.360;2023-04-03T04:12:26;6.07;;;4.88;;
26486;SDS011;14425;56.136;40.360;2023-04-03T04:14:51;6.07;;;5.38;;
26486;SDS011;14425;56.136;40.360;2023-04-03T04:17:17;9.15;;;5.03;;
26486;SDS011;14425;56.136;40.360;2023-04-03T04:19:42;7.65;;;4.72;;
26486;SDS011;14425;56.136;40.360;2023-04-03T04:22:08;8.02;;;5.70;;
26486;SDS011;14425;56.136;40.360;2023-04-03T04:24:33;8.93;;;5.20;;
26486;SDS011;14425;56.136;40.360;2023-04-03T04:26:59;6.43;;;4.90;;
26486;SDS011;14425;56.136;40.360;2023-04-03T04:29:25;7.70;;;4.95;;
26486;SDS011;14425;56.136;40.360;2023-04-03T04:31:50;8.75;;;5.15;;
26486;SDS011;14425;56.136;40.360;2023-04-03T04:34:16;9.13;;;5.32;;
26486;SDS011;14425;56.136;40.360;2023-04-03T04:36:41;9.85;;;5.55;;
26486;SDS011;14425;56.136;40.360;2023-04-03T04:39:07;8.10;;;5.20;;
26486;SDS011;14425;56.136;40.360;2023-04-03T04:41:33;7.43;;;5.32;;
26486;SDS011;14425;56.136;40.360;2023-04-03T04:43:59;6.82;;;5.22;;
26486;SDS011;14425;56.136;40.360;2023-04-03T04:46:25;10.88;;;5.43;;
26486;SDS011;14425;56.136;40.360;2023-04-03T04:48:51;7.70;;;4.68;;
26486;SDS011;14425;56.136;40.360;2023-04-03T04:51:16;9.27;;;5.30;;
26486;SDS011;14425;56.136;40.360;2023-04-03T04:53:42;8.30;;;5.65;;
26486;SDS011;14425;56.136;40.360;2023-04-03T04:56:08;10.90;;;5.43;;
26486;SDS011;14425;56.136;40.360;2023-04-03T04:58:35;9.57;;;6.13;;
26486;SDS011;14425;56.136;40.360;2023-04-03T05:01:04;8.27;;;4.32;;
26486;SDS011;14425;56.136;40.360;2023-04-03T05:03:31;12.07;;;5.35;;
26486;SDS011;14425;56.136;40.360;2023-04-03T05:05:57;9.07;;;5.05;;
26486;SDS011;14425;56.136;40.360;2023-04-03T05:08:23;7.43;;;4.80;;
26486;SDS011;14425;56.136;40.360;2023-04-03T05:10:49;9.35;;;5.20;;
26486;SDS011;14425;56.136;40.360;2023-04-03T05:13:15;5.60;;;4.57;;
26486;SDS011;14425;56.136;40.360;2023-04-03T05:15:40;6.03;;;4.80;;
26486;SDS011;14425;56.136;40.360;2023-04-03T05:18:06;10.55;;;4.93;;
26486;SDS011;14425;56.136;40.360;2023-04-03T05:20:32;9.68;;;4.70;;
26486;SDS011;14425;56.136;40.360;2023-04-03T05:22:58;6.47;;;5.07;;
26486;SDS011;14425;56.136;40.360;2023-04-03T05:25:24;10.40;;;4.40;;
26486;SDS011;14425;56.136;40.360;2023-04-03T05:27:50;7.53;;;4.65;;
26486;SDS011;14425;56.136;40.360;2023-04-03T05:30:16;7.93;;;4.57;;
26486;SDS011;14425;56.136;40.360;2023-04-03T05:32:42;14.10;;;5.00;;
26486;SDS011;14425;56.136;40.360;2023-04-03T05:35:08;6.80;;;4.70;;
26486;SDS011;14425;56.136;40.360;2023-04-03T05:37:34;11.80;;;5.20;;
26486;SDS011;14425;56.136;40.360;2023-04-03T05:40:00;8.60;;;4.82;;
26486;SDS011;14425;56.136;40.360;2023-04-03T05:42:27;8.32;;;5.07;;
26486;SDS011;14425;56.136;40.360;2023-04-03T05:44:52;9.63;;;4.95;;
26486;SDS011;14425;56.136;40.360;2023-04-03T05:47:18;10.88;;;4.55;;
26486;SDS011;14425;56.136;40.360;2023-04-03T05:49:44;10.82;;;4.85;;
26486;SDS011;14425;56.136;40.360;2023-04-03T05:52:18;6.78;;;4.53;;
26486;SDS011;14425;56.136;40.360;2023-04-03T05:54:50;11.43;;;5.00;;
26486;SDS011;14425;56.136;40.360;2023-04-03T05:57:16;8.77;;;5.22;;
26486;SDS011;14425;56.136;40.360;2023-04-03T05:59:45;8.77;;;4.63;;
26486;SDS011;14425;56.136;40.360;2023-04-03T06:02:12;12.40;;;5.45;;
26486;SDS011;14425;56.136;40.360;2023-04-03T06:04:39;9.73;;;4.90;;
26486;SDS011;14425;56.136;40.360;2023-04-03T06:07:04;8.77;;;5.35;;
26486;SDS011;14425;56.136;40.360;2023-04-03T06:09:30;8.75;;;4.57;;
26486;SDS011;14425;56.136;40.360;2023-04-03T06:11:56;6.43;;;4.18;;
26486;SDS011;14425;56.136;40.360;2023-04-03T06:14:24;11.02;;;4.50;;
26486;SDS011;14425;56.136;40.360;2023-04-03T06:16:50;4.60;;;3.92;;
26486;SDS011;14425;56.136;40.360;2023-04-03T06:19:16;7.10;;;4.22;;
26486;SDS011;14425;56.136;40.360;2023-04-03T06:21:42;5.72;;;4.07;;
26486;SDS011;14425;56.136;40.360;2023-04-03T06:24:07;15.85;;;4.55;;
26486;SDS011;14425;56.136;40.360;2023-04-03T06:26:34;7.75;;;4.35;;
26486;SDS011;14425;56.136;40.360;2023-04-03T06:29:00;7.07;;;4.30;;
26486;SDS011;14425;56.136;40.360;2023-04-03T06:31:27;8.85;;;3.92;;
26486;SDS011;14425;56.136;40.360;2023-04-03T06:33:52;7.20;;;3.88;;
26486;SDS011;14425;56.136;40.360;2023-04-03T06:36:18;8.27;;;4.70;;
26486;SDS011;14425;56.136;40.360;2023-04-03T06:38:47;4.60;;;3.67;;
26486;SDS011;14425;56.136;40.360;2023-04-03T06:41:13;8.48;;;4.65;;
26486;SDS011;14425;56.136;40.360;2023-04-03T06:43:39;8.75;;;4.32;;
26486;SDS011;14425;56.136;40.360;2023-04-03T06:46:12;6.50;;;3.85;;
26486;SDS011;14425;56.136;40.360;2023-04-03T06:48:39;4.90;;;3.47;;
26486;SDS011;14425;56.136;40.360;2023-04-03T06:51:05;7.65;;;3.60;;
26486;SDS011;14425;56.136;40.360;2023-04-03T06:53:30;10.32;;;3.80;;
26486;SDS011;14425;56.136;40.360;2023-04-03T06:55:56;6.13;;;3.03;;
26486;SDS011;14425;56.136;40.360;2023-04-03T06:58:21;5.88;;;3.70;;
26486;SDS011;14425;56.136;40.360;2023-04-03T07:00:47;9.10;;;4.07;;
26486;SDS011;14425;56.136;40.360;2023-04-03T07:03:12;7.18;;;3.15;;
26486;SDS011;14425;56.136;40.360;2023-04-03T07:05:38;5.15;;;3.55;;
26486;SDS011;14425;56.136;40.360;2023-04-03T07:08:05;4.60;;;3.40;;
26486;SDS011;14425;56.136;40.360;2023-04-03T07:10:30;7.47;;;3.40;;
26486;SDS011;14425;56.136;40.360;2023-04-03T07:12:56;8.75;;;3.75;;
26486;SDS011;14425;56.136;40.360;2023-04-03T07:15:22;5.18;;;3.70;;
26486;SDS011;14425;56.136;40.360;2023-04-03T07:17:48;6.70;;;3.40;;
26486;SDS011;14425;56.136;40.360;2023-04-03T07:20:13;5.03;;;3.95;;
26486;SDS011;14425;56.136;40.360;2023-04-03T07:22:40;5.15;;;3.92;;
26486;SDS011;14425;56.136;40.360;2023-04-03T07:25:06;6.03;;;3.78;;
26486;SDS011;14425;56.136;40.360;2023-04-03T07:27:32;7.32;;;4.47;;
26486;SDS011;14425;56.136;40.360;2023-04-03T07:29:58;4.22;;;3.72;;
26486;SDS011;14425;56.136;40.360;2023-04-03T07:32:23;6.82;;;4.00;;
26486;SDS011;14425;56.136;40.360;2023-04-03T07:34:49;5.18;;;3.25;;
26486;SDS011;14425;56.136;40.360;2023-04-03T07:37:14;7.28;;;4.25;;
26486;SDS011;14425;56.136;40.360;2023-04-03T07:39:43;5.28;;;4.20;;
26486;SDS011;14425;56.136;40.360;2023-04-03T07:42:09;5.93;;;3.33;;
26486;SDS011;14425;56.136;40.360;2023-04-03T07:44:35;6.65;;;4.05;;
26486;SDS011;14425;56.136;40.360;2023-04-03T07:47:01;7.32;;;3.70;;
26486;SDS011;14425;56.136;40.360;2023-04-03T07:49:27;4.60;;;3.95;;
26486;SDS011;14425;56.136;40.360;2023-04-03T07:51:52;7.25;;;4.00;;
26486;SDS011;14425;56.136;40.360;2023-04-03T07:54:18;8.82;;;4.32;;
26486;SDS011;14425;56.136;40.360;2023-04-03T07:56:43;9.60;;;4.18;;
26486;SDS011;14425;56.136;40.360;2023-04-03T07:59:09;6.75;;;3.97;;
26486;SDS011;14425;56.136;40.360;2023-04-03T08:01:36;13.20;;;4.55;;
26486;SDS011;14425;56.136;40.360;2023-04-03T08:04:01;8.25;;;4.32;;
26486;SDS011;14425;56.136;40.360;2023-04-03T08:06:27;6.82;;;4.25;;
26486;SDS011;14425;56.136;40.360;2023-04-03T08:08:55;9.25;;;3.75;;
26486;SDS011;14425;56.136;40.360;2023-04-03T08:11:21;11.32;;;4.47;;
26486;SDS011;14425;56.136;40.360;2023-04-03T08:13:47;5.40;;;4.00;;
26486;SDS011;14425;56.136;40.360;2023-04-03T08:16:14;6.95;;;4.05;;
26486;SDS011;14425;56.136;40.360;2023-04-03T08:18:42;7.15;;;4.43;;
26486;SDS011;14425;56.136;40.360;2023-04-03T08:21:08;6.63;;;4.53;;
26486;SDS011;14425;56.136;40.360;2023-04-03T08:23:36;4.72;;;3.97;;
26486;SDS011;14425;56.136;40.360;2023-04-03T08:26:06;6.45;;;4.38;;
26486;SDS011;14425;56.136;40.360;2023-04-03T08:28:32;4.97;;;3.63;;
26486;SDS011;14425;56.136;40.360;2023-04-03T08:31:01;7.32;;;4.57;;
26486;SDS011;14425;56.136;40.360;2023-04-03T08:33:28;6.70;;;4.22;;
26486;SDS011;14425;56.136;40.360;2023-04-03T08:35:53;5.25;;;4.13;;
26486;SDS011;14425;56.136;40.360;2023-04-03T08:38:19;5.35;;;3.83;;
26486;SDS011;14425;56.136;40.360;2023-04-03T08:40:44;7.47;;;4.68;;
26486;SDS011;14425;56.136;40.360;2023-04-03T08:45:55;6.25;;;4.00;;
26486;SDS011;14425;56.136;40.360;2023-04-03T08:48:30;6.55;;;4.65;;
26486;SDS011;14425;56.136;40.360;2023-04-03T08:51:08;5.22;;;3.40;;
26486;SDS011;14425;56.136;40.360;2023-04-03T08:53:40;7.75;;;3.33;;
26486;SDS011;14425;56.136;40.360;2023-04-03T08:56:11;8.48;;;3.90;;
26486;SDS011;14425;56.136;40.360;2023-04-03T08:58:50;10.60;;;3.42;;
26486;SDS011;14425;56.136;40.360;2023-04-03T09:01:30;12.50;;;4.18;;
26486;SDS011;14425;56.136;40.360;2023-04-03T09:04:01;5.60;;;3.60;;
26486;SDS011;14425;56.136;40.360;2023-04-03T09:06:31;7.47;;;3.50;;
26486;SDS011;14425;56.136;40.360;2023-04-03T09:14:28;7.97;;;3.90;;
26486;SDS011;14425;56.136;40.360;2023-04-03T09:17:03;5.78;;;3.15;;
26486;SDS011;14425;56.136;40.360;2023-04-03T09:22:18;8.00;;;4.22;;
26486;SDS011;14425;56.136;40.360;2023-04-03T09:24:58;9.57;;;4.32;;
26486;SDS011;14425;56.136;40.360;2023-04-03T09:27:31;6.93;;;4.00;;
26486;SDS011;14425;56.136;40.360;2023-04-03T09:29:56;8.02;;;4.30;;
26486;SDS011;14425;56.136;40.360;2023-04-03T09:32:33;6.88;;;3.88;;
26486;SDS011;14425;56.136;40.360;2023-04-03T09:37:50;9.15;;;3.75;;
26486;SDS011;14425;56.136;40.360;2023-04-03T09:43:39;11.60;;;3.90;;
26486;SDS011;14425;56.136;40.360;2023-04-03T09:46:20;10.68;;;5.32;;
26486;SDS011;14425;56.136;40.360;2023-04-03T09:49:00;9.73;;;4.35;;
26486;SDS011;14425;56.136;40.360;2023-04-03T09:51:29;13.63;;;4.15;;
26486;SDS011;14425;56.136;40.360;2023-04-03T09:53:56;6.43;;;3.60;;
26486;SDS011;14425;56.136;40.360;2023-04-03T09:56:25;8.30;;;3.80;;
26486;SDS011;14425;56.136;40.360;2023-04-03T10:01:25;7.53;;;4.05;;
26486;SDS011;14425;56.136;40.360;2023-04-03T10:04:03;8.73;;;3.58;;
26486;SDS011;14425;56.136;40.360;2023-04-03T10:06:48;12.32;;;4.10;;
26486;SDS011;14425;56.136;40.360;2023-04-03T10:09:23;8.88;;;3.70;;
26486;SDS011;14425;56.136;40.360;2023-04-03T10:14:26;7.57;;;3.55;;
26486;SDS011;14425;56.136;40.360;2023-04-03T10:16:54;8.57;;;3.67;;
26486;SDS011;14425;56.136;40.360;2023-04-03T10:19:36;7.40;;;4.07;;
26486;SDS011;14425;56.136;40.360;2023-04-03T10:27:41;7.40;;;3.13;;
26486;SDS011;14425;56.136;40.360;2023-04-03T10:32:57;6.60;;;3.00;;
26486;SDS011;14425;56.136;40.360;2023-04-03T10:38:28;7.32;;;3.33;;
26486;SDS011;14425;56.136;40.360;2023-04-03T10:46:22;6.97;;;3.05;;
26486;SDS011;14425;56.136;40.360;2023-04-03T10:49:03;7.97;;;3.42;;
26486;SDS011;14425;56.136;40.360;2023-04-03T10:51:43;6.43;;;3.33;;
26486;SDS011;14425;56.136;40.360;2023-04-03T10:59:26;6.65;;;3.78;;
26486;SDS011;14425;56.136;40.360;2023-04-03T11:02:01;7.75;;;3.67;;
26486;SDS011;14425;56.136;40.360;2023-04-03T11:04:34;8.73;;;3.88;;
26486;SDS011;14425;56.136;40.360;2023-04-03T11:07:15;4.67;;;3.73;;
26486;SDS011;14425;56.136;40.360;2023-04-03T11:09:46;10.07;;;3.63;;
26486;SDS011;14425;56.136;40.360;2023-04-03T11:12:24;8.15;;;3.70;;
26486;SDS011;14425;56.136;40.360;2023-04-03T11:14:56;6.55;;;3.25;;
26486;SDS011;14425;56.136;40.360;2023-04-03T11:17:39;8.85;;;4.18;;
26486;SDS011;14425;56.136;40.360;2023-04-03T11:25:29;4.82;;;3.25;;
26486;SDS011;14425;56.136;40.360;2023-04-03T11:27:58;5.85;;;3.42;;
26486;SDS011;14425;56.136;40.360;2023-04-03T11:36:46;10.43;;;3.72;;
26486;SDS011;14425;56.136;40.360;2023-04-03T11:39:22;6.70;;;3.97;;
26486;SDS011;14425;56.136;40.360;2023-04-03T11:41:52;10.15;;;4.55;;
26486;SDS011;14425;56.136;40.360;2023-04-03T11:44:26;8.18;;;3.70;;
26486;SDS011;14425;56.136;40.360;2023-04-03T11:46:58;14.15;;;3.60;;
26486;SDS011;14425;56.136;40.360;2023-04-03T12:05:48;9.02;;;3.08;;
26486;SDS011;14425;56.136;40.360;2023-04-03T12:29:44;13.93;;;5.50;;
26486;SDS011;14425;56.136;40.360;2023-04-03T12:40:53;11.07;;;4.45;;
26486;SDS011;14425;56.136;40.360;2023-04-03T12:46:16;7.90;;;4.25;;
26486;SDS011;14425;56.136;40.360;2023-04-03T12:51:13;9.45;;;3.90;;
26486;SDS011;14425;56.136;40.360;2023-04-03T12:53:40;16.85;;;4.38;;
26486;SDS011;14425;56.136;40.360;2023-04-03T12:58:53;8.52;;;4.63;;
26486;SDS011;14425;56.136;40.360;2023-04-03T13:01:21;15.82;;;4.15;;
26486;SDS011;14425;56.136;40.360;2023-04-03T13:03:52;16.60;;;4.45;;
26486;SDS011;14425;56.136;40.360;2023-04-03T13:06:24;12.80;;;3.55;;
26486;SDS011;14425;56.136;40.360;2023-04-03T13:08:54;11.13;;;3.63;;
26486;SDS011;14425;56.136;40.360;2023-04-03T13:11:25;9.23;;;3.80;;
26486;SDS011;14425;56.136;40.360;2023-04-03T13:13:56;9.00;;;3.75;;
26486;SDS011;14425;56.136;40.360;2023-04-03T13:16:39;8.52;;;3.72;;
26486;SDS011;14425;56.136;40.360;2023-04-03T13:19:06;8.88;;;3.55;;
26486;SDS011;14425;56.136;40.360;2023-04-03T13:21:41;9.63;;;4.40;;
26486;SDS011;14425;56.136;40.360;2023-04-03T13:24:08;11.48;;;3.35;;
26486;SDS011;14425;56.136;40.360;2023-04-03T13:26:34;11.45;;;3.17;;
26486;SDS011;14425;56.136;40.360;2023-04-03T13:29:02;13.02;;;3.55;;
26486;SDS011;14425;56.136;40.360;2023-04-03T13:31:34;10.50;;;3.70;;
26486;SDS011;14425;56.136;40.360;2023-04-03T13:34:03;12.48;;;3.40;;
26486;SDS011;14425;56.136;40.360;2023-04-03T13:36:43;10.40;;;4.37;;
26486;SDS011;14425;56.136;40.360;2023-04-03T13:39:22;5.07;;;3.15;;
26486;SDS011;14425;56.136;40.360;2023-04-03T13:41:52;8.70;;;3.80;;
26486;SDS011;14425;56.136;40.360;2023-04-03T13:46:52;6.43;;;4.10;;
26486;SDS011;14425;56.136;40.360;2023-04-03T13:51:51;17.80;;;6.10;;
26486;SDS011;14425;56.136;40.360;2023-04-03T13:54:19;16.90;;;5.28;;
26486;SDS011;14425;56.136;40.360;2023-04-03T13:56:52;6.28;;;4.57;;
26486;SDS011;14425;56.136;40.360;2023-04-03T13:59:37;8.13;;;4.30;;
26486;SDS011;14425;56.136;40.360;2023-04-03T14:04:29;13.30;;;4.88;;
26486;SDS011;14425;56.136;40.360;2023-04-03T14:07:18;10.88;;;4.00;;
26486;SDS011;14425;56.136;40.360;2023-04-03T14:09:45;7.30;;;4.13;;
26486;SDS011;14425;56.136;40.360;2023-04-03T14:12:13;10.82;;;3.90;;
26486;SDS011;14425;56.136;40.360;2023-04-03T14:14:43;9.23;;;3.92;;
26486;SDS011;14425;56.136;40.360;2023-04-03T14:17:14;9.77;;;4.32;;
26486;SDS011;14425;56.136;40.360;2023-04-03T14:19:42;7.28;;;4.78;;
26486;SDS011;14425;56.136;40.360;2023-04-03T14:22:18;12.93;;;6.05;;
26486;SDS011;14425;56.136;40.360;2023-04-03T14:24:47;9.20;;;4.47;;
26486;SDS011;14425;56.136;40.360;2023-04-03T14:27:15;9.45;;;4.28;;
26486;SDS011;14425;56.136;40.360;2023-04-03T14:29:43;11.90;;;4.20;;
26486;SDS011;14425;56.136;40.360;2023-04-03T14:32:11;12.32;;;4.22;;
26486;SDS011;14425;56.136;40.360;2023-04-03T14:34:38;9.80;;;4.07;;
26486;SDS011;14425;56.136;40.360;2023-04-03T14:37:04;17.20;;;4.60;;
26486;SDS011;14425;56.136;40.360;2023-04-03T14:39:31;15.27;;;4.55;;
26486;SDS011;14425;56.136;40.360;2023-04-03T14:41:56;13.77;;;4.95;;
26486;SDS011;14425;56.136;40.360;2023-04-03T14:44:22;15.30;;;5.35;;
26486;SDS011;14425;56.136;40.360;2023-04-03T14:46:48;17.65;;;6.82;;
26486;SDS011;14425;56.136;40.360;2023-04-03T14:49:14;22.92;;;6.07;;
26486;SDS011;14425;56.136;40.360;2023-04-03T14:51:44;14.43;;;5.95;;
26486;SDS011;14425;56.136;40.360;2023-04-03T14:54:12;15.07;;;5.90;;
26486;SDS011;14425;56.136;40.360;2023-04-03T14:56:39;14.75;;;6.18;;
26486;SDS011;14425;56.136;40.360;2023-04-03T14:59:05;12.77;;;6.25;;
26486;SDS011;14425;56.136;40.360;2023-04-03T15:01:34;18.40;;;6.65;;
26486;SDS011;14425;56.136;40.360;2023-04-03T15:04:00;15.85;;;6.20;;
26486;SDS011;14425;56.136;40.360;2023-04-03T15:06:25;19.50;;;6.72;;
26486;SDS011;14425;56.136;40.360;2023-04-03T15:08:51;20.65;;;7.10;;
26486;SDS011;14425;56.136;40.360;2023-04-03T15:11:16;14.30;;;7.03;;
26486;SDS011;14425;56.136;40.360;2023-04-03T15:13:42;13.40;;;7.88;;
26486;SDS011;14425;56.136;40.360;2023-04-03T15:16:12;13.40;;;6.05;;
26486;SDS011;14425;56.136;40.360;2023-04-03T15:18:41;15.50;;;6.75;;
26486;SDS011;14425;56.136;40.360;2023-04-03T15:21:07;14.90;;;6.47;;
26486;SDS011;14425;56.136;40.360;2023-04-03T15:23:33;8.95;;;6.18;;
26486;SDS011;14425;56.136;40.360;2023-04-03T15:25:58;14.98;;;6.40;;
26486;SDS011;14425;56.136;40.360;2023-04-03T15:30:58;13.18;;;6.47;;
26486;SDS011;14425;56.136;40.360;2023-04-03T15:33:24;21.00;;;6.95;;
26486;SDS011;14425;56.136;40.360;2023-04-03T15:35:51;28.58;;;8.15;;
26486;SDS011;14425;56.136;40.360;2023-04-03T15:38:16;20.45;;;7.40;;
26486;SDS011;14425;56.136;40.360;2023-04-03T15:40:42;16.65;;;7.72;;
26486;SDS011;14425;56.136;40.360;2023-04-03T15:43:08;21.83;;;8.25;;
26486;SDS011;14425;56.136;40.360;2023-04-03T15:45:35;16.58;;;8.63;;
26486;SDS011;14425;56.136;40.360;2023-04-03T15:48:02;19.15;;;8.85;;
26486;SDS011;14425;56.136;40.360;2023-04-03T15:50:29;21.90;;;9.38;;
26486;SDS011;14425;56.136;40.360;2023-04-03T15:52:55;15.40;;;8.13;;
26486;SDS011;14425;56.136;40.360;2023-04-03T15:55:24;24.83;;;10.10;;
26486;SDS011;14425;56.136;40.360;2023-04-03T15:57:51;22.98;;;9.30;;
26486;SDS011;14425;56.136;40.360;2023-04-03T16:00:17;27.70;;;8.93;;
26486;SDS011;14425;56.136;40.360;2023-04-03T16:02:44;31.55;;;11.48;;
26486;SDS011;14425;56.136;40.360;2023-04-03T16:05:10;27.65;;;10.77;;
26486;SDS011;14425;56.136;40.360;2023-04-03T16:07:38;34.92;;;12.68;;
26486;SDS011;14425;56.136;40.360;2023-04-03T16:10:04;22.30;;;9.98;;
26486;SDS011;14425;56.136;40.360;2023-04-03T16:12:31;23.35;;;8.88;;
26486;SDS011;14425;56.136;40.360;2023-04-03T16:14:57;25.80;;;9.70;;
26486;SDS011;14425;56.136;40.360;2023-04-03T16:17:22;18.48;;;7.05;;
26486;SDS011;14425;56.136;40.360;2023-04-03T16:19:48;14.35;;;6.00;;
26486;SDS011;14425;56.136;40.360;2023-04-03T16:22:13;12.07;;;6.07;;
26486;SDS011;14425;56.136;40.360;2023-04-03T16:24:39;16.13;;;7.68;;
26486;SDS011;14425;56.136;40.360;2023-04-03T16:27:04;22.30;;;7.30;;
26486;SDS011;14425;56.136;40.360;2023-04-03T16:29:30;23.45;;;8.45;;
26486;SDS011;14425;56.136;40.360;2023-04-03T16:31:56;15.93;;;8.18;;
26486;SDS011;14425;56.136;40.360;2023-04-03T16:34:22;13.18;;;7.50;;
26486;SDS011;14425;56.136;40.360;2023-04-03T16:36:50;16.42;;;7.45;;